Victoria — D5IK5 — position and weather

sailwx.info

Track history (hours):
 
Tides and Currents Weather Stations Pressure Air Temp Water Temp Dewpoint Dewpoint Depression Visibility Wind Speed Wind Dir Waves Ship Positions

Victoria

Last reported at 2017-Aug-18 18:16 UTC. Time now 2017-Oct-22 18:07 UTC.
Position N 31°44' E 031°58'.
Warning: this ship's position is months out of date.

Length 190 m; draft 11.8 m.

Type: Cargo ship. MMSI: 636016923.

Date/timePositionNaut miles runAvg speedWind from/ knotsBaromVisibWave heightAir tempDewpointWater temp
2017-Aug-18 18:16N 31°44' E 031°58'45313.0
2017-Aug-17 07:24N 37°23' E 025°55'511.9
2017-Aug-17 07:00N 37°26' E 025°50'612.1
2017-Aug-17 06:30N 37°31' E 025°47'612.9
2017-Aug-17 06:00N 37°38' E 025°45'612.9
2017-Aug-17 05:30N 37°44' E 025°42'713.0
2017-Aug-17 05:00N 37°50' E 025°40'  
2017-Aug-13 18:12N 41°30' E 029°23'0 0.9
2017-Aug-13 18:00N 41°31' E 029°23'0 1.0
2017-Aug-13 17:31N 41°31' E 029°22'0 0.9
2017-Aug-13 17:00N 41°31' E 029°22'0 1.0
2017-Aug-13 16:30N 41°31' E 029°21'0 0.9
2017-Aug-13 16:01N 41°32' E 029°21'0 1.0
2017-Aug-13 15:30N 41°32' E 029°20'1 1.0
2017-Aug-13 15:01N 41°32' E 029°20'1 0.9
2017-Aug-13 14:24N 41°32' E 029°19'0 0.8
2017-Aug-13 14:00N 41°32' E 029°18'0 0.6
2017-Aug-13 13:30N 41°32' E 029°18'0 0.7
2017-Aug-13 13:01N 41°32' E 029°18'1 0.7
2017-Aug-13 12:18N 41°32' E 029°17'0 0.0
2017-Aug-13 05:36N 41°32' E 029°17'0 1.0
2017-Aug-13 05:30N 41°32' E 029°17'0 0.0
2017-Aug-13 01:02N 41°32' E 029°17'0 0.8
2017-Aug-13 00:55N 41°32' E 029°17'0 0.8
2017-Aug-13 00:30N 41°32' E 029°16'0 0.8
2017-Aug-13 00:00N 41°32' E 029°16'0 0.8
2017-Aug-12 23:30N 41°33' E 029°16'0 0.8
2017-Aug-12 23:00N 41°33' E 029°15'0 0.9
2017-Aug-12 22:30N 41°33' E 029°15'1 0.8
2017-Aug-12 21:51N 41°33' E 029°14'0 0.6
2017-Aug-12 21:25N 41°33' E 029°14'0 0.7
2017-Aug-12 21:00N 41°33' E 029°13'0 0.9
2017-Aug-12 20:30N 41°32' E 029°13'1 1.5
2017-Aug-12 20:00N 41°32' E 029°12'4 7.3
2017-Aug-12 19:25N 41°35' E 029°15'612.4
2017-Aug-12 18:57N 41°41' E 029°18'612.6
2017-Aug-12 18:30N 41°46' E 029°20'612.5
2017-Aug-12 18:00N 41°52' E 029°23'612.4
2017-Aug-12 17:30N 41°58' E 029°25'612.3
2017-Aug-12 17:00N 42°04' E 029°28'612.4
2017-Aug-12 16:30N 42°10' E 029°31'612.6
2017-Aug-12 16:00N 42°16' E 029°34'712.7
2017-Aug-12 15:29N 42°22' E 029°36'612.8
2017-Aug-12 15:00N 42°28' E 029°39'612.8
2017-Aug-12 14:30N 42°34' E 029°42'612.8
2017-Aug-12 14:00N 42°40' E 029°46'712.6
2017-Aug-12 13:26N 42°47' E 029°49'512.4
2017-Aug-12 13:00N 42°52' E 029°51'612.4
2017-Aug-12 12:30N 42°57' E 029°54'712.4
2017-Aug-12 11:55N 43°04' E 029°57'512.4
2017-Aug-12 11:30N 43°09' E 029°59'612.5
2017-Aug-12 11:00N 43°15' E 030°02'612.7
2017-Aug-12 10:30N 43°21' E 030°05'612.7
2017-Aug-12 10:00N 43°27' E 030°08'612.7
2017-Aug-12 09:30N 43°33' E 030°11'612.9
2017-Aug-12 09:00N 43°39' E 030°14'612.8
2017-Aug-12 08:30N 43°45' E 030°17'612.6
2017-Aug-12 08:00N 43°51' E 030°20'612.6
2017-Aug-12 07:30N 43°57' E 030°23'612.4
2017-Aug-12 07:00N 44°03' E 030°26'612.5
2017-Aug-12 06:30N 44°09' E 030°28'612.5
2017-Aug-12 06:00N 44°15' E 030°31'612.7
2017-Aug-12 05:30N 44°21' E 030°34'612.7
2017-Aug-12 05:00N 44°27' E 030°37'612.8
2017-Aug-12 04:30N 44°33' E 030°40'612.9
2017-Aug-12 04:00N 44°39' E 030°44'612.7
2017-Aug-12 03:30N 44°45' E 030°46'612.6
2017-Aug-12 03:00N 44°51' E 030°49'612.7
2017-Aug-12 02:30N 44°57' E 030°52'612.7
2017-Aug-12 02:00N 45°03' E 030°55'612.7
2017-Aug-12 01:30N 45°09' E 030°58'612.9
2017-Aug-12 01:00N 45°15' E 031°01'612.9
2017-Aug-12 00:30N 45°21' E 031°04'612.6
2017-Aug-12 00:00N 45°27' E 031°05'5011.8
2017-Aug-11 19:45N 46°16' E 030°51'8 9.3
2017-Aug-11 18:55N 46°19' E 030°40'1 1.4
2017-Aug-11 18:30N 46°20' E 030°39'0 0.0
2017-Aug-11 18:00N 46°20' E 030°39'0 0.0
2017-Aug-11 17:31N 46°20' E 030°39'0 0.0
2017-Aug-11 16:59N 46°20' E 030°39'0 0.0
2017-Aug-11 16:31N 46°20' E 030°39'0 0.0
2017-Aug-11 15:59N 46°20' E 030°39'0 0.0
2017-Aug-11 15:31N 46°20' E 030°39'0 0.0
2017-Aug-11 15:00N 46°20' E 030°39'0 0.0
2017-Aug-11 14:00N 46°20' E 030°39'0 0.0
2017-Aug-11 13:30N 46°20' E 030°39'0 0.0
2017-Aug-11 13:01N 46°20' E 030°39'0 0.0
2017-Aug-11 12:30N 46°20' E 030°39'0 0.0
2017-Aug-11 12:01N 46°20' E 030°39'0 0.0
2017-Aug-11 11:29N 46°20' E 030°39'0 0.0
2017-Aug-11 11:00N 46°20' E 030°39'0 0.0
2017-Aug-11 10:29N 46°20' E 030°39'0 0.0
2017-Aug-11 10:00N 46°20' E 030°39'0 0.0
2017-Aug-11 09:30N 46°20' E 030°39'0 0.0
2017-Aug-11 09:00N 46°20' E 030°39'0 0.0
2017-Aug-11 08:29N 46°20' E 030°39'0 0.0
2017-Aug-11 08:01N 46°20' E 030°39'0 0.0
2017-Aug-11 07:30N 46°20' E 030°39'0 0.0
2017-Aug-11 07:00N 46°20' E 030°39'0 0.0
2017-Aug-11 06:29N 46°20' E 030°39'0 0.0
2017-Aug-11 06:00N 46°20' E 030°39'0 0.0
2017-Aug-11 05:30N 46°20' E 030°39'0 0.0
2017-Aug-11 05:01N 46°20' E 030°39'0 0.0
2017-Aug-11 04:30N 46°20' E 030°39'0 0.0
2017-Aug-11 04:00N 46°20' E 030°39'0 0.0
2017-Aug-11 03:30N 46°20' E 030°39'0 0.0
2017-Aug-11 03:01N 46°20' E 030°39'0 0.0
2017-Aug-11 02:29N 46°20' E 030°39'0 0.0
2017-Aug-11 02:00N 46°20' E 030°39'0 0.0
2017-Aug-11 01:31N 46°20' E 030°39'0 0.0
2017-Aug-11 01:00N 46°20' E 030°39'0 0.0
2017-Aug-11 00:29N 46°20' E 030°39'0 0.0
2017-Aug-11 00:01N 46°20' E 030°39'0 0.0
2017-Aug-10 23:29N 46°20' E 030°39'0 0.0
2017-Aug-10 23:00N 46°20' E 030°39'0 0.0
2017-Aug-10 22:29N 46°20' E 030°39'0 0.0
2017-Aug-10 22:00N 46°20' E 030°39'0 0.0
2017-Aug-10 21:29N 46°20' E 030°39'0 0.0
2017-Aug-10 21:01N 46°20' E 030°39'0 0.0
2017-Aug-10 20:29N 46°20' E 030°39'0 0.0
2017-Aug-10 20:00N 46°20' E 030°39'0 0.0
2017-Aug-10 19:30N 46°20' E 030°39'0 0.0
2017-Aug-10 19:00N 46°20' E 030°39'0 0.0
2017-Aug-10 18:29N 46°20' E 030°39'0 0.0
2017-Aug-10 18:00N 46°20' E 030°39'0 0.0
2017-Aug-10 17:29N 46°20' E 030°39'0 0.0
2017-Aug-10 17:00N 46°20' E 030°39'0 0.0
2017-Aug-10 16:29N 46°20' E 030°39'0 0.0
2017-Aug-10 16:00N 46°20' E 030°39'0 0.0
2017-Aug-10 15:29N 46°20' E 030°39'0 0.0
2017-Aug-10 15:00N 46°20' E 030°39'0 0.0
2017-Aug-10 14:29N 46°20' E 030°39'0 0.0
2017-Aug-10 14:00N 46°20' E 030°39'0 0.0
2017-Aug-10 13:30N 46°20' E 030°39'0 0.0
2017-Aug-10 13:00N 46°20' E 030°39'0 0.0
2017-Aug-10 12:29N 46°20' E 030°39'0 0.0
2017-Aug-10 12:00N 46°20' E 030°39'0 0.0
2017-Aug-10 11:30N 46°20' E 030°39'0 0.0
2017-Aug-10 11:01N 46°20' E 030°39'0 0.0
2017-Aug-10 10:29N 46°20' E 030°39'0 0.0
2017-Aug-10 10:00N 46°20' E 030°39'0 0.0
2017-Aug-10 09:29N 46°20' E 030°39'0 0.0
2017-Aug-10 09:00N 46°20' E 030°39'0 0.0
2017-Aug-10 08:29N 46°20' E 030°39'0 0.0
2017-Aug-10 08:00N 46°20' E 030°39'0 0.0
2017-Aug-10 07:29N 46°20' E 030°39'0 0.0
2017-Aug-10 07:01N 46°20' E 030°39'0 0.0
2017-Aug-10 06:30N 46°20' E 030°39'0 0.0
2017-Aug-10 06:00N 46°20' E 030°39'0 0.0
2017-Aug-10 05:29N 46°20' E 030°39'0 0.0
2017-Aug-10 05:01N 46°20' E 030°39'0 0.0
2017-Aug-10 04:31N 46°20' E 030°39'0 0.0
2017-Aug-10 04:01N 46°20' E 030°39'0 0.0
2017-Aug-10 03:31N 46°20' E 030°39'0 0.0
2017-Aug-10 03:01N 46°20' E 030°39'0 0.0
2017-Aug-10 02:30N 46°20' E 030°39'0 0.0
2017-Aug-10 02:01N 46°20' E 030°39'0 0.0
2017-Aug-10 01:31N 46°20' E 030°39'0 0.0
2017-Aug-10 01:00N 46°20' E 030°39'0 0.0
2017-Aug-10 00:31N 46°20' E 030°39'0 0.0
2017-Aug-10 00:01N 46°20' E 030°39'0 0.0
2017-Aug-09 23:31N 46°20' E 030°39'0 0.0
2017-Aug-09 23:01N 46°20' E 030°39'0 0.0
2017-Aug-09 22:31N 46°20' E 030°39'0 0.0
2017-Aug-09 22:01N 46°20' E 030°39'0 0.0
2017-Aug-09 21:31N 46°20' E 030°39'0 0.0
2017-Aug-09 21:01N 46°20' E 030°39'0 0.0
2017-Aug-09 20:31N 46°20' E 030°39'0 0.0
2017-Aug-09 20:01N 46°20' E 030°39'0 0.0
2017-Aug-09 19:31N 46°20' E 030°39'0 0.0
2017-Aug-09 19:01N 46°20' E 030°39'0 0.0
2017-Aug-09 18:31N 46°20' E 030°39'0 0.0
2017-Aug-09 18:01N 46°20' E 030°39'0 0.0
2017-Aug-09 17:31N 46°20' E 030°39'0 0.0
2017-Aug-09 17:01N 46°20' E 030°39'0 0.0
2017-Aug-09 16:31N 46°20' E 030°39'0 0.0
2017-Aug-09 16:01N 46°20' E 030°39'0 0.0
2017-Aug-09 15:30N 46°20' E 030°39'0 0.0
2017-Aug-09 15:01N 46°20' E 030°39'0 0.0
2017-Aug-09 14:30N 46°20' E 030°39'0 0.0
2017-Aug-09 14:00N 46°20' E 030°39'0 0.0
2017-Aug-09 13:31N 46°20' E 030°39'0 0.0
2017-Aug-09 13:01N 46°20' E 030°39'0 0.0
2017-Aug-09 12:31N 46°20' E 030°39'0 0.0
2017-Aug-09 12:01N 46°20' E 030°39'0 0.0
2017-Aug-09 11:31N 46°20' E 030°39'0 0.0
2017-Aug-09 11:01N 46°20' E 030°39'0 0.0
2017-Aug-09 10:30N 46°20' E 030°39'0 0.0
2017-Aug-09 10:00N 46°20' E 030°39'0 0.0
2017-Aug-09 09:30N 46°20' E 030°39'0 0.0
2017-Aug-09 09:01N 46°20' E 030°39'0 0.0
2017-Aug-09 08:31N 46°20' E 030°39'0 0.0
2017-Aug-09 08:01N 46°20' E 030°39'0 0.0
2017-Aug-09 07:31N 46°20' E 030°39'0 0.0
2017-Aug-09 07:01N 46°20' E 030°39'0 0.0
2017-Aug-09 06:30N 46°20' E 030°39'0 0.0
2017-Aug-09 06:00N 46°20' E 030°39'0 0.0
2017-Aug-09 05:31N 46°20' E 030°39'0 0.0
2017-Aug-09 05:01N 46°20' E 030°39'0 0.0
2017-Aug-09 04:31N 46°20' E 030°39'0 0.0
2017-Aug-09 04:01N 46°20' E 030°39'0 0.0
2017-Aug-09 03:31N 46°20' E 030°39'0 0.0
2017-Aug-09 03:01N 46°20' E 030°39'0 0.0
2017-Aug-09 02:30N 46°20' E 030°39'0 0.0
2017-Aug-09 02:00N 46°20' E 030°39'0 0.0
2017-Aug-09 01:30N 46°20' E 030°39'0 0.0
2017-Aug-09 01:01N 46°20' E 030°39'0 0.0
2017-Aug-09 00:30N 46°20' E 030°39'0 0.0
2017-Aug-09 00:01N 46°20' E 030°39'0 0.0
2017-Aug-08 23:31N 46°20' E 030°39'0 0.0
2017-Aug-08 23:00N 46°20' E 030°39'0 0.0
2017-Aug-08 22:31N 46°20' E 030°39'0 0.0
2017-Aug-08 22:00N 46°20' E 030°39'0 0.0
2017-Aug-08 21:30N 46°20' E 030°39'0 0.0
2017-Aug-08 21:00N 46°20' E 030°39'0 0.0
2017-Aug-08 20:30N 46°20' E 030°39'0 0.0
2017-Aug-08 20:01N 46°20' E 030°39'0 0.0
2017-Aug-08 19:31N 46°20' E 030°39'0 0.0
2017-Aug-08 19:01N 46°20' E 030°39'0 0.0
2017-Aug-08 18:31N 46°20' E 030°39'  
Track history (hours):
 
Tides and Currents Weather Stations Pressure Air Temp Water Temp Dewpoint Dewpoint Depression Visibility Wind Speed Wind Dir Waves Ship Positions

Victoria

Last reported at 2017-Aug-18 18:16 UTC. Time now 2017-Oct-22 18:07 UTC.
Position N 31°44' E 031°58'.
Warning: this ship's position is months out of date.

Length 190 m; draft 11.8 m.

Type: Cargo ship. MMSI: 636016923.

Date/timePositionNaut miles runAvg speedWind from/ knotsBaromVisibWave heightAir tempDewpointWater temp
2017-Aug-18 18:16N 31°44' E 031°58'45313.0
2017-Aug-17 07:24N 37°23' E 025°55'511.9
2017-Aug-17 07:00N 37°26' E 025°50'612.1
2017-Aug-17 06:30N 37°31' E 025°47'612.9
2017-Aug-17 06:00N 37°38' E 025°45'612.9
2017-Aug-17 05:30N 37°44' E 025°42'713.0
2017-Aug-17 05:00N 37°50' E 025°40'  
2017-Aug-13 18:12N 41°30' E 029°23'0 0.9
2017-Aug-13 18:00N 41°31' E 029°23'0 1.0
2017-Aug-13 17:31N 41°31' E 029°22'0 0.9
2017-Aug-13 17:00N 41°31' E 029°22'0 1.0
2017-Aug-13 16:30N 41°31' E 029°21'0 0.9
2017-Aug-13 16:01N 41°32' E 029°21'0 1.0
2017-Aug-13 15:30N 41°32' E 029°20'1 1.0
2017-Aug-13 15:01N 41°32' E 029°20'1 0.9
2017-Aug-13 14:24N 41°32' E 029°19'0 0.8
2017-Aug-13 14:00N 41°32' E 029°18'0 0.6
2017-Aug-13 13:30N 41°32' E 029°18'0 0.7
2017-Aug-13 13:01N 41°32' E 029°18'1 0.7
2017-Aug-13 12:18N 41°32' E 029°17'0 0.0
2017-Aug-13 05:36N 41°32' E 029°17'0 1.0
2017-Aug-13 05:30N 41°32' E 029°17'0 0.0
2017-Aug-13 01:02N 41°32' E 029°17'0 0.8
2017-Aug-13 00:55N 41°32' E 029°17'0 0.8
2017-Aug-13 00:30N 41°32' E 029°16'0 0.8
2017-Aug-13 00:00N 41°32' E 029°16'0 0.8
2017-Aug-12 23:30N 41°33' E 029°16'0 0.8
2017-Aug-12 23:00N 41°33' E 029°15'0 0.9
2017-Aug-12 22:30N 41°33' E 029°15'1 0.8
2017-Aug-12 21:51N 41°33' E 029°14'0 0.6
2017-Aug-12 21:25N 41°33' E 029°14'0 0.7
2017-Aug-12 21:00N 41°33' E 029°13'0 0.9
2017-Aug-12 20:30N 41°32' E 029°13'1 1.5
2017-Aug-12 20:00N 41°32' E 029°12'4 7.3
2017-Aug-12 19:25N 41°35' E 029°15'612.4
2017-Aug-12 18:57N 41°41' E 029°18'612.6
2017-Aug-12 18:30N 41°46' E 029°20'612.5
2017-Aug-12 18:00N 41°52' E 029°23'612.4
2017-Aug-12 17:30N 41°58' E 029°25'612.3
2017-Aug-12 17:00N 42°04' E 029°28'612.4
2017-Aug-12 16:30N 42°10' E 029°31'612.6
2017-Aug-12 16:00N 42°16' E 029°34'712.7
2017-Aug-12 15:29N 42°22' E 029°36'612.8
2017-Aug-12 15:00N 42°28' E 029°39'612.8
2017-Aug-12 14:30N 42°34' E 029°42'612.8
2017-Aug-12 14:00N 42°40' E 029°46'712.6
2017-Aug-12 13:26N 42°47' E 029°49'512.4
2017-Aug-12 13:00N 42°52' E 029°51'612.4
2017-Aug-12 12:30N 42°57' E 029°54'712.4
2017-Aug-12 11:55N 43°04' E 029°57'512.4
2017-Aug-12 11:30N 43°09' E 029°59'612.5
2017-Aug-12 11:00N 43°15' E 030°02'612.7
2017-Aug-12 10:30N 43°21' E 030°05'612.7
2017-Aug-12 10:00N 43°27' E 030°08'612.7
2017-Aug-12 09:30N 43°33' E 030°11'612.9
2017-Aug-12 09:00N 43°39' E 030°14'612.8
2017-Aug-12 08:30N 43°45' E 030°17'612.6
2017-Aug-12 08:00N 43°51' E 030°20'612.6
2017-Aug-12 07:30N 43°57' E 030°23'612.4
2017-Aug-12 07:00N 44°03' E 030°26'612.5
2017-Aug-12 06:30N 44°09' E 030°28'612.5
2017-Aug-12 06:00N 44°15' E 030°31'612.7
2017-Aug-12 05:30N 44°21' E 030°34'612.7
2017-Aug-12 05:00N 44°27' E 030°37'612.8
2017-Aug-12 04:30N 44°33' E 030°40'612.9
2017-Aug-12 04:00N 44°39' E 030°44'612.7
2017-Aug-12 03:30N 44°45' E 030°46'612.6
2017-Aug-12 03:00N 44°51' E 030°49'612.7
2017-Aug-12 02:30N 44°57' E 030°52'612.7
2017-Aug-12 02:00N 45°03' E 030°55'612.7
2017-Aug-12 01:30N 45°09' E 030°58'612.9
2017-Aug-12 01:00N 45°15' E 031°01'612.9
2017-Aug-12 00:30N 45°21' E 031°04'612.6
2017-Aug-12 00:00N 45°27' E 031°05'5011.8
2017-Aug-11 19:45N 46°16' E 030°51'8 9.3
2017-Aug-11 18:55N 46°19' E 030°40'1 1.4
2017-Aug-11 18:30N 46°20' E 030°39'0 0.0
2017-Aug-11 18:00N 46°20' E 030°39'0 0.0
2017-Aug-11 17:31N 46°20' E 030°39'0 0.0
2017-Aug-11 16:59N 46°20' E 030°39'0 0.0
2017-Aug-11 16:31N 46°20' E 030°39'0 0.0
2017-Aug-11 15:59N 46°20' E 030°39'0 0.0
2017-Aug-11 15:31N 46°20' E 030°39'0 0.0
2017-Aug-11 15:00N 46°20' E 030°39'0 0.0
2017-Aug-11 14:00N 46°20' E 030°39'0 0.0
2017-Aug-11 13:30N 46°20' E 030°39'0 0.0
2017-Aug-11 13:01N 46°20' E 030°39'0 0.0
2017-Aug-11 12:30N 46°20' E 030°39'0 0.0
2017-Aug-11 12:01N 46°20' E 030°39'0 0.0
2017-Aug-11 11:29N 46°20' E 030°39'0 0.0
2017-Aug-11 11:00N 46°20' E 030°39'0 0.0
2017-Aug-11 10:29N 46°20' E 030°39'0 0.0
2017-Aug-11 10:00N 46°20' E 030°39'0 0.0
2017-Aug-11 09:30N 46°20' E 030°39'0 0.0
2017-Aug-11 09:00N 46°20' E 030°39'0 0.0
2017-Aug-11 08:29N 46°20' E 030°39'0 0.0
2017-Aug-11 08:01N 46°20' E 030°39'0 0.0
2017-Aug-11 07:30N 46°20' E 030°39'0 0.0
2017-Aug-11 07:00N 46°20' E 030°39'0 0.0
2017-Aug-11 06:29N 46°20' E 030°39'0 0.0
2017-Aug-11 06:00N 46°20' E 030°39'0 0.0
2017-Aug-11 05:30N 46°20' E 030°39'0 0.0
2017-Aug-11 05:01N 46°20' E 030°39'0 0.0
2017-Aug-11 04:30N 46°20' E 030°39'0 0.0
2017-Aug-11 04:00N 46°20' E 030°39'0 0.0
2017-Aug-11 03:30N 46°20' E 030°39'0 0.0
2017-Aug-11 03:01N 46°20' E 030°39'0 0.0
2017-Aug-11 02:29N 46°20' E 030°39'0 0.0
2017-Aug-11 02:00N 46°20' E 030°39'0 0.0
2017-Aug-11 01:31N 46°20' E 030°39'0 0.0
2017-Aug-11 01:00N 46°20' E 030°39'0 0.0
2017-Aug-11 00:29N 46°20' E 030°39'0 0.0
2017-Aug-11 00:01N 46°20' E 030°39'0 0.0
2017-Aug-10 23:29N 46°20' E 030°39'0 0.0
2017-Aug-10 23:00N 46°20' E 030°39'0 0.0
2017-Aug-10 22:29N 46°20' E 030°39'0 0.0
2017-Aug-10 22:00N 46°20' E 030°39'0 0.0
2017-Aug-10 21:29N 46°20' E 030°39'0 0.0
2017-Aug-10 21:01N 46°20' E 030°39'0 0.0
2017-Aug-10 20:29N 46°20' E 030°39'0 0.0
2017-Aug-10 20:00N 46°20' E 030°39'0 0.0
2017-Aug-10 19:30N 46°20' E 030°39'0 0.0
2017-Aug-10 19:00N 46°20' E 030°39'0 0.0
2017-Aug-10 18:29N 46°20' E 030°39'0 0.0
2017-Aug-10 18:00N 46°20' E 030°39'0 0.0
2017-Aug-10 17:29N 46°20' E 030°39'0 0.0
2017-Aug-10 17:00N 46°20' E 030°39'0 0.0
2017-Aug-10 16:29N 46°20' E 030°39'0 0.0
2017-Aug-10 16:00N 46°20' E 030°39'0 0.0
2017-Aug-10 15:29N 46°20' E 030°39'0 0.0
2017-Aug-10 15:00N 46°20' E 030°39'0 0.0
2017-Aug-10 14:29N 46°20' E 030°39'0 0.0
2017-Aug-10 14:00N 46°20' E 030°39'0 0.0
2017-Aug-10 13:30N 46°20' E 030°39'0 0.0
2017-Aug-10 13:00N 46°20' E 030°39'0 0.0
2017-Aug-10 12:29N 46°20' E 030°39'0 0.0
2017-Aug-10 12:00N 46°20' E 030°39'0 0.0
2017-Aug-10 11:30N 46°20' E 030°39'0 0.0
2017-Aug-10 11:01N 46°20' E 030°39'0 0.0
2017-Aug-10 10:29N 46°20' E 030°39'0 0.0
2017-Aug-10 10:00N 46°20' E 030°39'0 0.0
2017-Aug-10 09:29N 46°20' E 030°39'0 0.0
2017-Aug-10 09:00N 46°20' E 030°39'0 0.0
2017-Aug-10 08:29N 46°20' E 030°39'0 0.0
2017-Aug-10 08:00N 46°20' E 030°39'0 0.0
2017-Aug-10 07:29N 46°20' E 030°39'0 0.0
2017-Aug-10 07:01N 46°20' E 030°39'0 0.0
2017-Aug-10 06:30N 46°20' E 030°39'0 0.0
2017-Aug-10 06:00N 46°20' E 030°39'0 0.0
2017-Aug-10 05:29N 46°20' E 030°39'0 0.0
2017-Aug-10 05:01N 46°20' E 030°39'0 0.0
2017-Aug-10 04:31N 46°20' E 030°39'0 0.0
2017-Aug-10 04:01N 46°20' E 030°39'0 0.0
2017-Aug-10 03:31N 46°20' E 030°39'0 0.0
2017-Aug-10 03:01N 46°20' E 030°39'0 0.0
2017-Aug-10 02:30N 46°20' E 030°39'0 0.0
2017-Aug-10 02:01N 46°20' E 030°39'0 0.0
2017-Aug-10 01:31N 46°20' E 030°39'0 0.0
2017-Aug-10 01:00N 46°20' E 030°39'0 0.0
2017-Aug-10 00:31N 46°20' E 030°39'0 0.0
2017-Aug-10 00:01N 46°20' E 030°39'0 0.0
2017-Aug-09 23:31N 46°20' E 030°39'0 0.0
2017-Aug-09 23:01N 46°20' E 030°39'0 0.0
2017-Aug-09 22:31N 46°20' E 030°39'0 0.0
2017-Aug-09 22:01N 46°20' E 030°39'0 0.0
2017-Aug-09 21:31N 46°20' E 030°39'0 0.0
2017-Aug-09 21:01N 46°20' E 030°39'0 0.0
2017-Aug-09 20:31N 46°20' E 030°39'0 0.0
2017-Aug-09 20:01N 46°20' E 030°39'0 0.0
2017-Aug-09 19:31N 46°20' E 030°39'0 0.0
2017-Aug-09 19:01N 46°20' E 030°39'0 0.0
2017-Aug-09 18:31N 46°20' E 030°39'0 0.0
2017-Aug-09 18:01N 46°20' E 030°39'0 0.0
2017-Aug-09 17:31N 46°20' E 030°39'0 0.0
2017-Aug-09 17:01N 46°20' E 030°39'0 0.0
2017-Aug-09 16:31N 46°20' E 030°39'0 0.0
2017-Aug-09 16:01N 46°20' E 030°39'0 0.0
2017-Aug-09 15:30N 46°20' E 030°39'0 0.0
2017-Aug-09 15:01N 46°20' E 030°39'0 0.0
2017-Aug-09 14:30N 46°20' E 030°39'0 0.0
2017-Aug-09 14:00N 46°20' E 030°39'0 0.0
2017-Aug-09 13:31N 46°20' E 030°39'0 0.0
2017-Aug-09 13:01N 46°20' E 030°39'0 0.0
2017-Aug-09 12:31N 46°20' E 030°39'0 0.0
2017-Aug-09 12:01N 46°20' E 030°39'0 0.0
2017-Aug-09 11:31N 46°20' E 030°39'0 0.0
2017-Aug-09 11:01N 46°20' E 030°39'0 0.0
2017-Aug-09 10:30N 46°20' E 030°39'0 0.0
2017-Aug-09 10:00N 46°20' E 030°39'0 0.0
2017-Aug-09 09:30N 46°20' E 030°39'0 0.0
2017-Aug-09 09:01N 46°20' E 030°39'0 0.0
2017-Aug-09 08:31N 46°20' E 030°39'0 0.0
2017-Aug-09 08:01N 46°20' E 030°39'0 0.0
2017-Aug-09 07:31N 46°20' E 030°39'0 0.0
2017-Aug-09 07:01N 46°20' E 030°39'0 0.0
2017-Aug-09 06:30N 46°20' E 030°39'0 0.0
2017-Aug-09 06:00N 46°20' E 030°39'0 0.0
2017-Aug-09 05:31N 46°20' E 030°39'0 0.0
2017-Aug-09 05:01N 46°20' E 030°39'0 0.0
2017-Aug-09 04:31N 46°20' E 030°39'0 0.0
2017-Aug-09 04:01N 46°20' E 030°39'0 0.0
2017-Aug-09 03:31N 46°20' E 030°39'0 0.0
2017-Aug-09 03:01N 46°20' E 030°39'0 0.0
2017-Aug-09 02:30N 46°20' E 030°39'0 0.0
2017-Aug-09 02:00N 46°20' E 030°39'0 0.0
2017-Aug-09 01:30N 46°20' E 030°39'0 0.0
2017-Aug-09 01:01N 46°20' E 030°39'0 0.0
2017-Aug-09 00:30N 46°20' E 030°39'0 0.0
2017-Aug-09 00:01N 46°20' E 030°39'0 0.0
2017-Aug-08 23:31N 46°20' E 030°39'0 0.0
2017-Aug-08 23:00N 46°20' E 030°39'0 0.0
2017-Aug-08 22:31N 46°20' E 030°39'0 0.0
2017-Aug-08 22:00N 46°20' E 030°39'0 0.0
2017-Aug-08 21:30N 46°20' E 030°39'0 0.0
2017-Aug-08 21:00N 46°20' E 030°39'0 0.0
2017-Aug-08 20:30N 46°20' E 030°39'0 0.0
2017-Aug-08 20:01N 46°20' E 030°39'0 0.0
2017-Aug-08 19:31N 46°20' E 030°39'0 0.0
2017-Aug-08 19:01N 46°20' E 030°39'0 0.0
2017-Aug-08 18:31N 46°20' E 030°39'  

Dump ship's entire track history